sensor_id;sensor_type;location;lat;lon;timestamp;P1;durP1;ratioP1;P2;durP2;ratioP2
74328;SDS011;62745;51.060;13.786;2023-05-15T00:00:51;4.50;;;2.35;;
74328;SDS011;62745;51.060;13.786;2023-05-15T00:03:16;5.32;;;2.60;;
74328;SDS011;62745;51.060;13.786;2023-05-15T00:05:42;5.03;;;2.60;;
74328;SDS011;62745;51.060;13.786;2023-05-15T00:08:07;5.03;;;2.10;;
74328;SDS011;62745;51.060;13.786;2023-05-15T00:10:32;7.03;;;2.70;;
74328;SDS011;62745;51.060;13.786;2023-05-15T00:12:57;5.63;;;2.73;;
74328;SDS011;62745;51.060;13.786;2023-05-15T00:15:23;4.60;;;2.53;;
74328;SDS011;62745;51.060;13.786;2023-05-15T00:17:48;4.20;;;2.47;;
74328;SDS011;62745;51.060;13.786;2023-05-15T00:20:13;5.23;;;2.87;;
74328;SDS011;62745;51.060;13.786;2023-05-15T00:22:38;4.67;;;2.77;;
74328;SDS011;62745;51.060;13.786;2023-05-15T00:25:04;4.30;;;2.55;;
74328;SDS011;62745;51.060;13.786;2023-05-15T00:27:30;4.93;;;2.45;;
74328;SDS011;62745;51.060;13.786;2023-05-15T00:29:55;5.53;;;2.67;;
74328;SDS011;62745;51.060;13.786;2023-05-15T00:32:20;5.27;;;2.70;;
74328;SDS011;62745;51.060;13.786;2023-05-15T00:34:45;6.10;;;2.83;;
74328;SDS011;62745;51.060;13.786;2023-05-15T00:37:11;5.03;;;2.80;;
74328;SDS011;62745;51.060;13.786;2023-05-15T00:39:36;5.68;;;2.88;;
74328;SDS011;62745;51.060;13.786;2023-05-15T00:42:02;5.73;;;2.50;;
74328;SDS011;62745;51.060;13.786;2023-05-15T00:44:29;6.97;;;2.65;;
74328;SDS011;62745;51.060;13.786;2023-05-15T00:46:56;4.22;;;2.60;;
74328;SDS011;62745;51.060;13.786;2023-05-15T00:49:22;4.70;;;2.50;;
74328;SDS011;62745;51.060;13.786;2023-05-15T00:51:47;6.00;;;2.95;;
74328;SDS011;62745;51.060;13.786;2023-05-15T00:54:14;4.55;;;2.75;;
74328;SDS011;62745;51.060;13.786;2023-05-15T00:56:39;4.65;;;2.75;;
74328;SDS011;62745;51.060;13.786;2023-05-15T00:59:08;5.22;;;2.47;;
74328;SDS011;62745;51.060;13.786;2023-05-15T01:01:34;4.78;;;2.40;;
74328;SDS011;62745;51.060;13.786;2023-05-15T01:04:00;5.95;;;2.60;;
74328;SDS011;62745;51.060;13.786;2023-05-15T01:06:26;4.72;;;2.63;;
74328;SDS011;62745;51.060;13.786;2023-05-15T01:08:53;5.35;;;2.55;;
74328;SDS011;62745;51.060;13.786;2023-05-15T01:11:20;4.43;;;2.55;;
74328;SDS011;62745;51.060;13.786;2023-05-15T01:13:49;5.80;;;2.55;;
74328;SDS011;62745;51.060;13.786;2023-05-15T01:16:14;4.30;;;2.43;;
74328;SDS011;62745;51.060;13.786;2023-05-15T01:18:39;4.85;;;2.58;;
74328;SDS011;62745;51.060;13.786;2023-05-15T01:29:19;4.85;;;2.63;;
74328;SDS011;62745;51.060;13.786;2023-05-15T01:31:53;5.18;;;3.00;;
74328;SDS011;62745;51.060;13.786;2023-05-15T01:34:22;4.60;;;2.92;;
74328;SDS011;62745;51.060;13.786;2023-05-15T01:36:55;5.13;;;2.42;;
74328;SDS011;62745;51.060;13.786;2023-05-15T01:39:23;4.80;;;2.53;;
74328;SDS011;62745;51.060;13.786;2023-05-15T01:42:12;4.97;;;2.85;;
74328;SDS011;62745;51.060;13.786;2023-05-15T01:44:42;4.75;;;2.63;;
74328;SDS011;62745;51.060;13.786;2023-05-15T01:47:14;4.82;;;2.72;;
74328;SDS011;62745;51.060;13.786;2023-05-15T01:49:44;5.88;;;3.15;;
74328;SDS011;62745;51.060;13.786;2023-05-15T01:52:15;4.32;;;2.50;;
74328;SDS011;62745;51.060;13.786;2023-05-15T01:54:42;5.65;;;2.38;;
74328;SDS011;62745;51.060;13.786;2023-05-15T01:57:09;5.60;;;2.95;;
74328;SDS011;62745;51.060;13.786;2023-05-15T01:59:36;6.65;;;2.63;;
74328;SDS011;62745;51.060;13.786;2023-05-15T02:02:03;4.97;;;2.88;;
74328;SDS011;62745;51.060;13.786;2023-05-15T02:04:29;5.07;;;2.60;;
74328;SDS011;62745;51.060;13.786;2023-05-15T02:06:56;4.93;;;2.38;;
74328;SDS011;62745;51.060;13.786;2023-05-15T02:09:23;5.95;;;2.70;;
74328;SDS011;62745;51.060;13.786;2023-05-15T02:11:48;4.80;;;2.37;;
74328;SDS011;62745;51.060;13.786;2023-05-15T02:14:15;5.97;;;3.00;;
74328;SDS011;62745;51.060;13.786;2023-05-15T02:16:41;8.43;;;2.72;;
74328;SDS011;62745;51.060;13.786;2023-05-15T02:19:06;5.13;;;2.72;;
74328;SDS011;62745;51.060;13.786;2023-05-15T02:21:33;5.03;;;2.70;;
74328;SDS011;62745;51.060;13.786;2023-05-15T02:23:59;5.38;;;2.80;;
74328;SDS011;62745;51.060;13.786;2023-05-15T02:26:35;4.50;;;2.45;;
74328;SDS011;62745;51.060;13.786;2023-05-15T02:29:27;5.53;;;2.80;;
74328;SDS011;62745;51.060;13.786;2023-05-15T02:32:16;7.10;;;2.75;;
74328;SDS011;62745;51.060;13.786;2023-05-15T02:34:49;5.30;;;2.70;;
74328;SDS011;62745;51.060;13.786;2023-05-15T02:37:19;4.85;;;2.80;;
74328;SDS011;62745;51.060;13.786;2023-05-15T02:39:50;6.18;;;2.40;;
74328;SDS011;62745;51.060;13.786;2023-05-15T02:42:18;5.78;;;3.15;;
74328;SDS011;62745;51.060;13.786;2023-05-15T02:44:45;5.45;;;2.80;;
74328;SDS011;62745;51.060;13.786;2023-05-15T02:47:10;5.82;;;2.58;;
74328;SDS011;62745;51.060;13.786;2023-05-15T02:49:36;6.10;;;2.85;;
74328;SDS011;62745;51.060;13.786;2023-05-15T02:52:03;5.20;;;2.90;;
74328;SDS011;62745;51.060;13.786;2023-05-15T02:54:29;5.50;;;2.65;;
74328;SDS011;62745;51.060;13.786;2023-05-15T02:56:54;7.00;;;2.80;;
74328;SDS011;62745;51.060;13.786;2023-05-15T02:59:19;4.90;;;2.70;;
74328;SDS011;62745;51.060;13.786;2023-05-15T03:01:45;4.65;;;2.65;;
74328;SDS011;62745;51.060;13.786;2023-05-15T03:04:12;8.90;;;3.35;;
74328;SDS011;62745;51.060;13.786;2023-05-15T03:06:38;6.95;;;3.78;;
74328;SDS011;62745;51.060;13.786;2023-05-15T03:09:04;6.40;;;3.27;;
74328;SDS011;62745;51.060;13.786;2023-05-15T03:11:29;6.03;;;3.03;;
74328;SDS011;62745;51.060;13.786;2023-05-15T03:13:54;5.37;;;3.10;;
74328;SDS011;62745;51.060;13.786;2023-05-15T03:16:19;5.43;;;2.97;;
74328;SDS011;62745;51.060;13.786;2023-05-15T03:18:45;6.43;;;3.40;;
74328;SDS011;62745;51.060;13.786;2023-05-15T03:21:11;6.90;;;3.30;;
74328;SDS011;62745;51.060;13.786;2023-05-15T03:23:37;5.60;;;3.30;;
74328;SDS011;62745;51.060;13.786;2023-05-15T03:26:02;5.33;;;2.83;;
74328;SDS011;62745;51.060;13.786;2023-05-15T03:28:27;5.63;;;3.33;;
74328;SDS011;62745;51.060;13.786;2023-05-15T03:30:52;6.30;;;3.47;;
74328;SDS011;62745;51.060;13.786;2023-05-15T03:33:18;8.53;;;3.47;;
74328;SDS011;62745;51.060;13.786;2023-05-15T03:35:43;6.87;;;3.40;;
74328;SDS011;62745;51.060;13.786;2023-05-15T03:38:08;6.27;;;3.57;;
74328;SDS011;62745;51.060;13.786;2023-05-15T03:40:34;7.20;;;3.50;;
74328;SDS011;62745;51.060;13.786;2023-05-15T03:42:59;6.13;;;3.57;;
74328;SDS011;62745;51.060;13.786;2023-05-15T03:45:24;7.10;;;3.67;;
74328;SDS011;62745;51.060;13.786;2023-05-15T03:47:49;5.33;;;3.00;;
74328;SDS011;62745;51.060;13.786;2023-05-15T03:50:15;5.97;;;3.30;;
74328;SDS011;62745;51.060;13.786;2023-05-15T03:52:40;6.57;;;3.70;;
74328;SDS011;62745;51.060;13.786;2023-05-15T03:55:05;5.70;;;3.38;;
74328;SDS011;62745;51.060;13.786;2023-05-15T03:57:31;5.63;;;3.15;;
74328;SDS011;62745;51.060;13.786;2023-05-15T03:59:57;6.05;;;3.20;;
74328;SDS011;62745;51.060;13.786;2023-05-15T04:02:22;7.03;;;3.30;;
74328;SDS011;62745;51.060;13.786;2023-05-15T04:04:47;6.10;;;3.60;;
74328;SDS011;62745;51.060;13.786;2023-05-15T04:07:13;6.50;;;3.37;;
74328;SDS011;62745;51.060;13.786;2023-05-15T04:09:38;5.43;;;3.30;;
74328;SDS011;62745;51.060;13.786;2023-05-15T04:12:03;5.90;;;3.33;;
74328;SDS011;62745;51.060;13.786;2023-05-15T04:14:29;6.95;;;2.92;;
74328;SDS011;62745;51.060;13.786;2023-05-15T04:16:54;6.75;;;3.03;;
74328;SDS011;62745;51.060;13.786;2023-05-15T04:19:19;6.30;;;3.00;;
74328;SDS011;62745;51.060;13.786;2023-05-15T04:21:45;6.22;;;3.30;;
74328;SDS011;62745;51.060;13.786;2023-05-15T04:24:10;7.27;;;3.13;;
74328;SDS011;62745;51.060;13.786;2023-05-15T04:26:36;7.22;;;3.47;;
74328;SDS011;62745;51.060;13.786;2023-05-15T04:29:01;7.00;;;3.38;;
74328;SDS011;62745;51.060;13.786;2023-05-15T04:31:27;6.22;;;3.20;;
74328;SDS011;62745;51.060;13.786;2023-05-15T04:33:52;5.90;;;2.97;;
74328;SDS011;62745;51.060;13.786;2023-05-15T04:36:17;8.83;;;3.17;;
74328;SDS011;62745;51.060;13.786;2023-05-15T04:38:43;5.43;;;3.03;;
74328;SDS011;62745;51.060;13.786;2023-05-15T04:41:08;7.00;;;3.20;;
74328;SDS011;62745;51.060;13.786;2023-05-15T04:43:33;5.75;;;2.80;;
74328;SDS011;62745;51.060;13.786;2023-05-15T04:45:58;4.80;;;2.67;;
74328;SDS011;62745;51.060;13.786;2023-05-15T04:48:24;5.32;;;3.10;;
74328;SDS011;62745;51.060;13.786;2023-05-15T04:50:49;6.57;;;3.47;;
74328;SDS011;62745;51.060;13.786;2023-05-15T04:53:15;5.25;;;3.33;;
74328;SDS011;62745;51.060;13.786;2023-05-15T04:55:41;6.37;;;3.43;;
74328;SDS011;62745;51.060;13.786;2023-05-15T04:58:06;7.17;;;4.07;;
74328;SDS011;62745;51.060;13.786;2023-05-15T05:00:31;5.77;;;3.13;;
74328;SDS011;62745;51.060;13.786;2023-05-15T05:02:56;6.10;;;3.30;;
74328;SDS011;62745;51.060;13.786;2023-05-15T05:05:22;5.33;;;3.10;;
74328;SDS011;62745;51.060;13.786;2023-05-15T05:07:47;8.15;;;3.90;;
74328;SDS011;62745;51.060;13.786;2023-05-15T05:10:12;8.03;;;3.47;;
74328;SDS011;62745;51.060;13.786;2023-05-15T05:12:37;6.50;;;3.97;;
74328;SDS011;62745;51.060;13.786;2023-05-15T05:15:03;5.40;;;3.27;;
74328;SDS011;62745;51.060;13.786;2023-05-15T05:17:29;12.43;;;4.30;;
74328;SDS011;62745;51.060;13.786;2023-05-15T05:19:55;10.52;;;4.38;;
74328;SDS011;62745;51.060;13.786;2023-05-15T05:22:20;86.83;;;16.97;;
74328;SDS011;62745;51.060;13.786;2023-05-15T05:24:46;8.03;;;4.20;;
74328;SDS011;62745;51.060;13.786;2023-05-15T05:27:11;7.70;;;3.88;;
74328;SDS011;62745;51.060;13.786;2023-05-15T05:29:36;8.27;;;4.20;;
74328;SDS011;62745;51.060;13.786;2023-05-15T05:32:02;13.32;;;4.70;;
74328;SDS011;62745;51.060;13.786;2023-05-15T05:34:27;6.30;;;3.50;;
74328;SDS011;62745;51.060;13.786;2023-05-15T05:36:52;7.30;;;3.75;;
74328;SDS011;62745;51.060;13.786;2023-05-15T05:39:18;14.13;;;4.83;;
74328;SDS011;62745;51.060;13.786;2023-05-15T05:41:43;13.40;;;4.67;;
74328;SDS011;62745;51.060;13.786;2023-05-15T05:44:08;8.88;;;3.33;;
74328;SDS011;62745;51.060;13.786;2023-05-15T05:46:34;6.47;;;3.42;;
74328;SDS011;62745;51.060;13.786;2023-05-15T05:48:59;15.27;;;4.65;;
74328;SDS011;62745;51.060;13.786;2023-05-15T05:51:24;10.00;;;4.23;;
74328;SDS011;62745;51.060;13.786;2023-05-15T05:53:50;7.17;;;3.37;;
74328;SDS011;62745;51.060;13.786;2023-05-15T05:56:15;5.73;;;3.53;;
74328;SDS011;62745;51.060;13.786;2023-05-15T05:58:40;7.75;;;3.90;;
74328;SDS011;62745;51.060;13.786;2023-05-15T06:01:06;7.53;;;3.90;;
74328;SDS011;62745;51.060;13.786;2023-05-15T06:03:31;6.55;;;3.90;;
74328;SDS011;62745;51.060;13.786;2023-05-15T06:05:58;7.43;;;3.75;;
74328;SDS011;62745;51.060;13.786;2023-05-15T06:08:23;8.48;;;3.95;;
74328;SDS011;62745;51.060;13.786;2023-05-15T06:10:48;7.77;;;3.90;;
74328;SDS011;62745;51.060;13.786;2023-05-15T06:13:13;11.37;;;4.30;;
74328;SDS011;62745;51.060;13.786;2023-05-15T06:15:39;9.88;;;4.45;;
74328;SDS011;62745;51.060;13.786;2023-05-15T06:18:05;9.15;;;4.70;;
74328;SDS011;62745;51.060;13.786;2023-05-15T06:20:30;6.60;;;4.20;;
74328;SDS011;62745;51.060;13.786;2023-05-15T06:22:56;7.28;;;4.20;;
74328;SDS011;62745;51.060;13.786;2023-05-15T06:25:21;8.38;;;4.45;;
74328;SDS011;62745;51.060;13.786;2023-05-15T06:27:46;7.05;;;4.32;;
74328;SDS011;62745;51.060;13.786;2023-05-15T06:30:12;7.63;;;4.40;;
74328;SDS011;62745;51.060;13.786;2023-05-15T06:32:37;8.68;;;4.35;;
74328;SDS011;62745;51.060;13.786;2023-05-15T06:35:03;8.10;;;4.65;;
74328;SDS011;62745;51.060;13.786;2023-05-15T06:37:29;11.90;;;4.35;;
74328;SDS011;62745;51.060;13.786;2023-05-15T06:39:54;9.10;;;4.70;;
74328;SDS011;62745;51.060;13.786;2023-05-15T06:42:20;12.30;;;4.88;;
74328;SDS011;62745;51.060;13.786;2023-05-15T06:44:46;8.90;;;5.13;;
74328;SDS011;62745;51.060;13.786;2023-05-15T06:47:11;8.48;;;4.97;;
74328;SDS011;62745;51.060;13.786;2023-05-15T06:49:36;8.48;;;5.18;;
74328;SDS011;62745;51.060;13.786;2023-05-15T06:52:02;10.63;;;5.53;;
74328;SDS011;62745;51.060;13.786;2023-05-15T06:54:27;12.35;;;5.40;;
74328;SDS011;62745;51.060;13.786;2023-05-15T06:56:52;9.07;;;4.87;;
74328;SDS011;62745;51.060;13.786;2023-05-15T06:59:18;7.53;;;4.60;;
74328;SDS011;62745;51.060;13.786;2023-05-15T07:01:43;10.17;;;4.77;;
74328;SDS011;62745;51.060;13.786;2023-05-15T07:04:08;11.05;;;4.75;;
74328;SDS011;62745;51.060;13.786;2023-05-15T07:06:33;7.87;;;4.73;;
74328;SDS011;62745;51.060;13.786;2023-05-15T07:09:00;9.63;;;4.68;;
74328;SDS011;62745;51.060;13.786;2023-05-15T07:11:25;9.57;;;5.60;;
74328;SDS011;62745;51.060;13.786;2023-05-15T07:13:53;11.80;;;4.40;;
74328;SDS011;62745;51.060;13.786;2023-05-15T07:16:19;10.80;;;5.40;;
74328;SDS011;62745;51.060;13.786;2023-05-15T07:18:44;8.17;;;5.13;;
74328;SDS011;62745;51.060;13.786;2023-05-15T07:21:09;8.98;;;4.50;;
74328;SDS011;62745;51.060;13.786;2023-05-15T07:23:35;9.63;;;4.50;;
74328;SDS011;62745;51.060;13.786;2023-05-15T07:26:00;8.57;;;4.30;;
74328;SDS011;62745;51.060;13.786;2023-05-15T07:28:25;7.93;;;4.37;;
74328;SDS011;62745;51.060;13.786;2023-05-15T07:30:51;7.47;;;4.63;;
74328;SDS011;62745;51.060;13.786;2023-05-15T07:33:16;10.68;;;4.13;;
74328;SDS011;62745;51.060;13.786;2023-05-15T07:35:42;10.02;;;4.72;;
74328;SDS011;62745;51.060;13.786;2023-05-15T07:38:07;8.65;;;4.20;;
74328;SDS011;62745;51.060;13.786;2023-05-15T07:40:32;10.50;;;4.77;;
74328;SDS011;62745;51.060;13.786;2023-05-15T07:42:58;8.18;;;4.15;;
74328;SDS011;62745;51.060;13.786;2023-05-15T07:45:23;7.93;;;4.50;;
74328;SDS011;62745;51.060;13.786;2023-05-15T07:47:49;9.88;;;4.82;;
74328;SDS011;62745;51.060;13.786;2023-05-15T07:50:15;7.63;;;4.45;;
74328;SDS011;62745;51.060;13.786;2023-05-15T07:52:40;9.10;;;4.57;;
74328;SDS011;62745;51.060;13.786;2023-05-15T07:55:07;8.73;;;4.32;;
74328;SDS011;62745;51.060;13.786;2023-05-15T07:57:33;11.10;;;4.93;;
74328;SDS011;62745;51.060;13.786;2023-05-15T07:59:59;7.50;;;4.78;;
74328;SDS011;62745;51.060;13.786;2023-05-15T08:02:26;8.63;;;4.43;;
74328;SDS011;62745;51.060;13.786;2023-05-15T08:04:53;7.28;;;4.38;;
74328;SDS011;62745;51.060;13.786;2023-05-15T08:07:18;7.20;;;4.60;;
74328;SDS011;62745;51.060;13.786;2023-05-15T08:09:44;6.75;;;4.30;;
74328;SDS011;62745;51.060;13.786;2023-05-15T08:12:17;9.48;;;4.75;;
74328;SDS011;62745;51.060;13.786;2023-05-15T08:14:47;8.27;;;4.78;;
74328;SDS011;62745;51.060;13.786;2023-05-15T08:17:16;6.95;;;4.57;;
74328;SDS011;62745;51.060;13.786;2023-05-15T08:19:42;7.50;;;4.43;;
74328;SDS011;62745;51.060;13.786;2023-05-15T08:22:07;7.93;;;4.68;;
74328;SDS011;62745;51.060;13.786;2023-05-15T08:24:32;6.63;;;4.53;;
74328;SDS011;62745;51.060;13.786;2023-05-15T08:26:58;8.98;;;4.50;;
74328;SDS011;62745;51.060;13.786;2023-05-15T08:29:24;8.70;;;4.43;;
74328;SDS011;62745;51.060;13.786;2023-05-15T08:31:49;6.38;;;4.30;;
74328;SDS011;62745;51.060;13.786;2023-05-15T08:34:14;7.38;;;4.70;;
74328;SDS011;62745;51.060;13.786;2023-05-15T08:36:40;7.82;;;4.65;;
74328;SDS011;62745;51.060;13.786;2023-05-15T08:39:05;10.40;;;5.13;;
74328;SDS011;62745;51.060;13.786;2023-05-15T08:41:35;7.53;;;4.43;;
74328;SDS011;62745;51.060;13.786;2023-05-15T08:44:07;6.82;;;4.40;;
74328;SDS011;62745;51.060;13.786;2023-05-15T08:46:33;9.15;;;4.53;;
74328;SDS011;62745;51.060;13.786;2023-05-15T08:48:58;8.30;;;4.43;;
74328;SDS011;62745;51.060;13.786;2023-05-15T08:51:28;8.27;;;4.45;;
74328;SDS011;62745;51.060;13.786;2023-05-15T08:53:54;7.78;;;4.43;;
74328;SDS011;62745;51.060;13.786;2023-05-15T08:56:19;7.57;;;4.80;;
74328;SDS011;62745;51.060;13.786;2023-05-15T08:58:45;8.80;;;4.78;;
74328;SDS011;62745;51.060;13.786;2023-05-15T09:01:11;8.25;;;4.68;;
74328;SDS011;62745;51.060;13.786;2023-05-15T09:03:39;8.32;;;5.00;;
74328;SDS011;62745;51.060;13.786;2023-05-15T09:06:05;7.75;;;4.75;;
74328;SDS011;62745;51.060;13.786;2023-05-15T09:08:31;6.90;;;4.38;;
74328;SDS011;62745;51.060;13.786;2023-05-15T09:10:58;7.47;;;4.70;;
74328;SDS011;62745;51.060;13.786;2023-05-15T09:13:26;8.25;;;5.38;;
74328;SDS011;62745;51.060;13.786;2023-05-15T09:15:51;9.60;;;4.90;;
74328;SDS011;62745;51.060;13.786;2023-05-15T09:18:17;7.80;;;4.90;;
74328;SDS011;62745;51.060;13.786;2023-05-15T09:20:42;7.37;;;5.00;;
74328;SDS011;62745;51.060;13.786;2023-05-15T09:23:20;8.83;;;4.90;;
74328;SDS011;62745;51.060;13.786;2023-05-15T09:25:50;8.02;;;5.10;;
74328;SDS011;62745;51.060;13.786;2023-05-15T09:28:30;8.07;;;4.65;;
74328;SDS011;62745;51.060;13.786;2023-05-15T09:30:58;7.80;;;4.68;;
74328;SDS011;62745;51.060;13.786;2023-05-15T09:33:32;8.15;;;5.30;;
74328;SDS011;62745;51.060;13.786;2023-05-15T09:36:01;8.90;;;5.07;;
74328;SDS011;62745;51.060;13.786;2023-05-15T09:38:28;9.13;;;5.13;;
74328;SDS011;62745;51.060;13.786;2023-05-15T09:41:04;8.63;;;5.03;;
74328;SDS011;62745;51.060;13.786;2023-05-15T09:43:37;7.88;;;5.22;;
74328;SDS011;62745;51.060;13.786;2023-05-15T09:46:04;7.20;;;4.68;;
74328;SDS011;62745;51.060;13.786;2023-05-15T09:48:32;8.88;;;4.95;;
74328;SDS011;62745;51.060;13.786;2023-05-15T09:50:58;9.10;;;5.20;;
74328;SDS011;62745;51.060;13.786;2023-05-15T09:53:24;9.13;;;5.22;;
74328;SDS011;62745;51.060;13.786;2023-05-15T09:55:50;9.47;;;5.23;;
74328;SDS011;62745;51.060;13.786;2023-05-15T09:58:17;8.45;;;5.65;;
74328;SDS011;62745;51.060;13.786;2023-05-15T10:00:44;9.48;;;5.07;;
74328;SDS011;62745;51.060;13.786;2023-05-15T10:03:10;8.38;;;5.18;;
74328;SDS011;62745;51.060;13.786;2023-05-15T10:05:36;10.25;;;5.03;;
74328;SDS011;62745;51.060;13.786;2023-05-15T10:08:02;7.35;;;4.97;;
74328;SDS011;62745;51.060;13.786;2023-05-15T10:10:29;7.78;;;4.90;;
74328;SDS011;62745;51.060;13.786;2023-05-15T10:12:55;6.50;;;4.57;;
74328;SDS011;62745;51.060;13.786;2023-05-15T10:15:23;7.82;;;5.07;;
74328;SDS011;62745;51.060;13.786;2023-05-15T10:17:50;8.48;;;5.18;;
74328;SDS011;62745;51.060;13.786;2023-05-15T10:20:16;6.82;;;4.22;;
74328;SDS011;62745;51.060;13.786;2023-05-15T10:22:45;7.93;;;4.80;;
74328;SDS011;62745;51.060;13.786;2023-05-15T10:25:15;7.18;;;4.70;;
74328;SDS011;62745;51.060;13.786;2023-05-15T10:27:52;6.97;;;3.92;;
74328;SDS011;62745;51.060;13.786;2023-05-15T10:30:18;7.35;;;4.75;;
74328;SDS011;62745;51.060;13.786;2023-05-15T10:32:44;7.60;;;4.60;;
74328;SDS011;62745;51.060;13.786;2023-05-15T10:35:11;7.43;;;4.78;;
74328;SDS011;62745;51.060;13.786;2023-05-15T10:37:39;8.48;;;4.13;;
74328;SDS011;62745;51.060;13.786;2023-05-15T10:40:05;7.40;;;4.57;;
74328;SDS011;62745;51.060;13.786;2023-05-15T10:42:34;6.75;;;4.05;;
74328;SDS011;62745;51.060;13.786;2023-05-15T10:45:00;6.38;;;4.13;;
74328;SDS011;62745;51.060;13.786;2023-05-15T10:47:27;8.80;;;4.50;;
74328;SDS011;62745;51.060;13.786;2023-05-15T10:49:54;8.30;;;4.45;;
74328;SDS011;62745;51.060;13.786;2023-05-15T10:52:20;7.05;;;4.28;;
74328;SDS011;62745;51.060;13.786;2023-05-15T10:54:45;7.05;;;4.15;;
74328;SDS011;62745;51.060;13.786;2023-05-15T10:57:11;7.72;;;4.13;;
74328;SDS011;62745;51.060;13.786;2023-05-15T10:59:38;7.50;;;3.85;;
74328;SDS011;62745;51.060;13.786;2023-05-15T11:02:22;6.00;;;3.90;;
74328;SDS011;62745;51.060;13.786;2023-05-15T11:04:58;6.95;;;3.97;;
74328;SDS011;62745;51.060;13.786;2023-05-15T11:07:25;7.50;;;4.05;;
74328;SDS011;62745;51.060;13.786;2023-05-15T11:09:51;7.20;;;4.22;;
74328;SDS011;62745;51.060;13.786;2023-05-15T11:12:17;6.18;;;3.80;;
74328;SDS011;62745;51.060;13.786;2023-05-15T11:17:24;8.95;;;3.70;;
74328;SDS011;62745;51.060;13.786;2023-05-15T11:22:31;6.17;;;3.53;;
74328;SDS011;62745;51.060;13.786;2023-05-15T11:30:22;8.97;;;3.57;;
74328;SDS011;62745;51.060;13.786;2023-05-15T11:40:30;7.20;;;3.45;;
74328;SDS011;62745;51.060;13.786;2023-05-15T11:43:03;9.65;;;3.83;;
74328;SDS011;62745;51.060;13.786;2023-05-15T11:45:30;9.10;;;3.85;;
74328;SDS011;62745;51.060;13.786;2023-05-15T11:48:00;7.13;;;4.30;;
74328;SDS011;62745;51.060;13.786;2023-05-15T11:50:29;6.45;;;4.60;;
74328;SDS011;62745;51.060;13.786;2023-05-15T11:52:56;7.65;;;4.22;;
74328;SDS011;62745;51.060;13.786;2023-05-15T11:55:22;8.73;;;4.25;;
74328;SDS011;62745;51.060;13.786;2023-05-15T11:57:49;8.52;;;4.97;;
74328;SDS011;62745;51.060;13.786;2023-05-15T12:00:14;7.00;;;4.20;;
74328;SDS011;62745;51.060;13.786;2023-05-15T12:02:40;8.57;;;4.93;;
74328;SDS011;62745;51.060;13.786;2023-05-15T12:05:06;11.00;;;5.40;;
74328;SDS011;62745;51.060;13.786;2023-05-15T12:07:36;6.70;;;4.57;;
74328;SDS011;62745;51.060;13.786;2023-05-15T12:10:11;8.52;;;5.88;;
74328;SDS011;62745;51.060;13.786;2023-05-15T12:12:40;7.60;;;4.85;;
74328;SDS011;62745;51.060;13.786;2023-05-15T12:15:08;7.28;;;4.32;;
74328;SDS011;62745;51.060;13.786;2023-05-15T12:17:35;6.28;;;4.30;;
74328;SDS011;62745;51.060;13.786;2023-05-15T12:20:01;11.18;;;5.10;;
74328;SDS011;62745;51.060;13.786;2023-05-15T12:22:34;8.85;;;5.60;;
74328;SDS011;62745;51.060;13.786;2023-05-15T12:25:00;8.63;;;5.72;;
74328;SDS011;62745;51.060;13.786;2023-05-15T12:27:25;9.50;;;5.97;;
74328;SDS011;62745;51.060;13.786;2023-05-15T12:29:51;8.60;;;6.22;;
74328;SDS011;62745;51.060;13.786;2023-05-15T12:32:16;8.23;;;5.68;;
74328;SDS011;62745;51.060;13.786;2023-05-15T12:34:42;9.38;;;5.50;;
74328;SDS011;62745;51.060;13.786;2023-05-15T12:37:10;9.30;;;5.50;;
74328;SDS011;62745;51.060;13.786;2023-05-15T12:39:48;7.68;;;5.18;;
74328;SDS011;62745;51.060;13.786;2023-05-15T12:42:17;9.10;;;5.35;;
74328;SDS011;62745;51.060;13.786;2023-05-15T12:44:42;9.60;;;5.38;;
74328;SDS011;62745;51.060;13.786;2023-05-15T12:47:08;8.87;;;5.70;;
74328;SDS011;62745;51.060;13.786;2023-05-15T12:49:36;8.80;;;5.38;;
74328;SDS011;62745;51.060;13.786;2023-05-15T12:52:08;10.65;;;5.38;;
74328;SDS011;62745;51.060;13.786;2023-05-15T12:54:38;8.57;;;5.40;;
74328;SDS011;62745;51.060;13.786;2023-05-15T12:57:05;8.18;;;5.20;;
74328;SDS011;62745;51.060;13.786;2023-05-15T12:59:31;7.75;;;5.18;;
74328;SDS011;62745;51.060;13.786;2023-05-15T13:01:57;6.47;;;4.65;;
74328;SDS011;62745;51.060;13.786;2023-05-15T13:04:22;7.40;;;5.13;;
74328;SDS011;62745;51.060;13.786;2023-05-15T13:06:47;7.70;;;4.63;;
74328;SDS011;62745;51.060;13.786;2023-05-15T13:09:13;7.67;;;4.53;;
74328;SDS011;62745;51.060;13.786;2023-05-15T13:11:45;8.30;;;4.75;;
74328;SDS011;62745;51.060;13.786;2023-05-15T13:14:10;8.20;;;4.30;;
74328;SDS011;62745;51.060;13.786;2023-05-15T13:16:41;12.50;;;5.72;;
74328;SDS011;62745;51.060;13.786;2023-05-15T13:19:07;14.48;;;6.63;;
74328;SDS011;62745;51.060;13.786;2023-05-15T13:21:33;16.60;;;6.75;;
74328;SDS011;62745;51.060;13.786;2023-05-15T13:23:59;13.27;;;6.35;;
74328;SDS011;62745;51.060;13.786;2023-05-15T13:26:24;8.90;;;5.63;;
74328;SDS011;62745;51.060;13.786;2023-05-15T13:28:50;19.45;;;5.55;;
74328;SDS011;62745;51.060;13.786;2023-05-15T13:31:15;12.87;;;4.33;;
74328;SDS011;62745;51.060;13.786;2023-05-15T13:33:41;11.27;;;6.35;;
74328;SDS011;62745;51.060;13.786;2023-05-15T13:36:06;10.70;;;7.03;;
74328;SDS011;62745;51.060;13.786;2023-05-15T13:38:32;7.82;;;5.75;;
74328;SDS011;62745;51.060;13.786;2023-05-15T13:40:57;10.85;;;6.18;;
74328;SDS011;62745;51.060;13.786;2023-05-15T13:43:22;11.17;;;6.80;;
74328;SDS011;62745;51.060;13.786;2023-05-15T13:45:47;12.97;;;7.17;;
74328;SDS011;62745;51.060;13.786;2023-05-15T13:48:13;11.30;;;6.63;;
74328;SDS011;62745;51.060;13.786;2023-05-15T13:50:38;14.37;;;6.13;;
74328;SDS011;62745;51.060;13.786;2023-05-15T13:53:04;10.00;;;6.60;;
74328;SDS011;62745;51.060;13.786;2023-05-15T13:55:30;10.90;;;6.30;;
74328;SDS011;62745;51.060;13.786;2023-05-15T13:57:55;10.60;;;6.90;;
74328;SDS011;62745;51.060;13.786;2023-05-15T14:00:21;9.85;;;6.00;;
74328;SDS011;62745;51.060;13.786;2023-05-15T14:02:47;14.50;;;5.93;;
74328;SDS011;62745;51.060;13.786;2023-05-15T14:05:13;10.53;;;6.80;;
74328;SDS011;62745;51.060;13.786;2023-05-15T14:07:39;9.38;;;6.20;;
74328;SDS011;62745;51.060;13.786;2023-05-15T14:10:05;8.55;;;6.00;;
74328;SDS011;62745;51.060;13.786;2023-05-15T14:12:31;8.60;;;5.72;;
74328;SDS011;62745;51.060;13.786;2023-05-15T14:14:57;8.23;;;5.88;;
74328;SDS011;62745;51.060;13.786;2023-05-15T14:17:22;8.07;;;5.60;;
74328;SDS011;62745;51.060;13.786;2023-05-15T14:19:48;12.43;;;6.70;;
74328;SDS011;62745;51.060;13.786;2023-05-15T14:22:13;9.33;;;6.43;;
74328;SDS011;62745;51.060;13.786;2023-05-15T14:24:38;9.40;;;6.45;;
74328;SDS011;62745;51.060;13.786;2023-05-15T14:27:04;9.97;;;6.90;;
74328;SDS011;62745;51.060;13.786;2023-05-15T14:29:29;9.73;;;6.32;;
74328;SDS011;62745;51.060;13.786;2023-05-15T14:31:54;9.33;;;6.83;;
74328;SDS011;62745;51.060;13.786;2023-05-15T14:34:20;7.90;;;5.13;;
74328;SDS011;62745;51.060;13.786;2023-05-15T14:36:46;7.70;;;5.50;;
74328;SDS011;62745;51.060;13.786;2023-05-15T14:39:15;11.90;;;5.35;;
74328;SDS011;62745;51.060;13.786;2023-05-15T14:44:07;7.45;;;5.40;;
74328;SDS011;62745;51.060;13.786;2023-05-15T14:46:32;8.35;;;5.20;;
74328;SDS011;62745;51.060;13.786;2023-05-15T14:49:00;5.20;;;3.75;;
74328;SDS011;62745;51.060;13.786;2023-05-15T14:51:25;5.57;;;3.90;;
74328;SDS011;62745;51.060;13.786;2023-05-15T14:53:50;6.07;;;4.47;;
74328;SDS011;62745;51.060;13.786;2023-05-15T14:56:16;6.73;;;4.33;;
74328;SDS011;62745;51.060;13.786;2023-05-15T14:58:41;6.10;;;4.20;;